Time;durP1;ratioP1;P1;durP2;ratioP2;P2;SDS_P1;SDS_P2;PMS_P1;PMS_P2;Temp;Humidity;BMP_temperature;BMP_pressure;BME280_temperature;BME280_humidity;BME280_pressure;Samples;Min_cycle;Max_cycle;Signal;HPM_P1;HPM_P2
2022/12/12 00:01:18;;;;;;;;;;;;;;;18.10;65.29;99575.78;7402476;19;1661;-64
2022/12/12 00:03:46;;;;;;;;;;;;;;;17.95;66.04;99582.75;7404522;19;1352;-64
2022/12/12 00:06:15;;;;;;;;;;;;;;;18.17;65.64;99570.66;7400216;19;1383;-65
2022/12/12 00:08:43;;;;;;;;;;;;;;;18.95;62.87;99588.38;7403012;19;1853;-80
2022/12/12 00:11:13;;;;;;;;;;;;;;;19.48;61.81;99604.03;7404686;19;1000;-81
2022/12/12 00:13:42;;;;;;;;;;;;;;;19.79;60.63;99600.69;7402829;19;1495;-64
2022/12/12 00:16:11;;;;;;;;;;;;;;;19.97;60.27;99613.09;7402734;19;1653;-80
2022/12/12 00:18:42;;;;;;;;;;;;;;;20.01;60.52;99592.97;7403831;19;1731;-81
2022/12/12 00:21:14;;;;;;;;;;;;;;;19.99;60.30;99587.75;7404157;19;1201;-80
2022/12/12 00:23:44;;;;;;;;;;;;;;;20.04;60.47;99593.47;7405428;19;1634;-80
2022/12/12 00:26:16;;;;;;;;;;;;;;;19.59;61.50;99612.75;7409999;19;1684;-80
2022/12/12 00:28:45;;;;;;;;;;;;;;;18.97;62.98;99611.31;7408606;19;1857;-64
2022/12/12 00:31:13;;;;;;;;;;;;;;;18.58;64.15;99609.16;7408676;19;1368;-64
2022/12/12 00:33:46;;;;;;;;;;;;;;;18.39;64.67;99612.91;7410196;19;1592;-64
2022/12/12 00:36:15;;;;;;;;;;;;;;;18.20;64.66;99589.88;7410947;19;965;-64
2022/12/12 00:38:43;;;;;;;;;;;;;;;18.16;65.01;99609.94;7411219;19;1420;-80
2022/12/12 00:41:13;;;;;;;;;;;;;;;18.11;65.06;99617.59;7409318;19;1684;-80
2022/12/12 00:43:41;;;;;;;;;;;;;;;18.02;65.29;99606.00;7409759;19;1571;-81
2022/12/12 00:46:10;;;;;;;;;;;;;;;17.98;65.79;99609.16;7410043;19;1561;-64
2022/12/12 00:48:38;;;;;;;;;;;;;;;17.87;65.35;99594.22;7407127;19;1854;-64
2022/12/12 00:51:11;;;;;;;;;;;;;;;17.89;65.52;99622.47;7409841;19;1005;-64
2022/12/12 00:53:40;;;;;;;;;;;;;;;17.83;65.26;99606.19;7409308;19;1766;-64
2022/12/12 00:56:08;;;;;;;;;;;;;;;17.80;65.76;99618.00;7409285;19;1699;-80
2022/12/12 00:58:37;;;;;;;;;;;;;;;17.82;65.23;99642.75;7405963;19;1495;-64
2022/12/12 01:01:10;;;;;;;;;;;;;;;17.80;65.28;99627.88;7404449;19;1534;-64
2022/12/12 01:03:40;;;;;;;;;;;;;;;17.74;65.40;99634.69;7409488;19;1558;-65
2022/12/12 01:06:11;;;;;;;;;;;;;;;17.76;65.25;99646.06;7410216;19;951;-79
2022/12/12 01:08:40;;;;;;;;;;;;;;;17.73;65.04;99633.03;7407327;19;1853;-64
2022/12/12 01:11:09;;;;;;;;;;;;;;;17.72;65.04;99644.69;7407817;19;1636;-79
2022/12/12 01:13:37;;;;;;;;;;;;;;;17.72;65.04;99628.66;7407996;19;1570;-79
2022/12/12 01:16:07;;;;;;;;;;;;;;;17.69;65.36;99632.47;7407640;19;1452;-79
2022/12/12 01:18:36;;;;;;;;;;;;;;;17.68;65.43;99627.28;7408006;19;1342;-64
2022/12/12 01:21:04;;;;;;;;;;;;;;;17.67;65.54;99639.00;7406112;19;1001;-80
2022/12/12 01:23:35;;;;;;;;;;;;;;;17.62;65.60;99638.59;7408809;19;1689;-80
2022/12/12 01:26:05;;;;;;;;;;;;;;;17.61;65.79;99635.09;7404625;19;1667;-81
2022/12/12 01:28:33;;;;;;;;;;;;;;;17.64;65.60;99644.63;7406719;19;1858;-79
2022/12/12 01:31:02;;;;;;;;;;;;;;;17.72;64.90;99646.53;7407740;19;1526;-63
2022/12/12 01:33:30;;;;;;;;;;;;;;;17.76;64.98;99648.75;7406067;19;1689;-64
2022/12/12 01:35:58;;;;;;;;;;;;;;;17.76;65.18;99626.50;7406280;19;997;-62
2022/12/12 01:38:27;;;;;;;;;;;;;;;17.71;64.92;99651.06;7407382;19;1630;-70
2022/12/12 01:40:58;;;;;;;;;;;;;;;17.71;65.28;99661.75;7407093;19;1487;-63
2022/12/12 01:43:27;;;;;;;;;;;;;;;17.69;64.94;99658.38;7407606;19;1586;-62
2022/12/12 01:46:10;;;;;;;;;;;;;;;17.64;64.98;99663.34;7406281;19;1338;-63
2022/12/12 01:48:40;;;;;;;;;;;;;;;17.64;64.95;99677.53;7404326;19;1865;-69
2022/12/12 01:51:11;;;;;;;;;;;;;;;17.64;65.57;99676.72;7403840;19;1013;-62
2022/12/12 01:53:40;;;;;;;;;;;;;;;17.50;66.49;99683.44;7407549;19;1574;-62
2022/12/12 01:56:13;;;;;;;;;;;;;;;17.40;66.93;99667.47;7405911;19;1563;-62
2022/12/12 01:58:43;;;;;;;;;;;;;;;17.35;67.44;99682.25;7407234;19;1658;-73
2022/12/12 02:01:12;;;;;;;;;;;;;;;17.33;67.73;99692.25;7403606;19;1680;-62
2022/12/12 02:03:41;;;;;;;;;;;;;;;17.29;68.37;99699.75;7406144;19;1621;-74
2022/12/12 02:06:12;;;;;;;;;;;;;;;17.29;68.48;99678.38;7408048;19;1590;-73
2022/12/12 02:08:43;;;;;;;;;;;;;;;17.72;67.53;99698.16;7404283;19;1916;-62
2022/12/12 02:11:14;;;;;;;;;;;;;;;18.40;65.52;99691.38;7403696;19;1699;-63
2022/12/12 02:13:43;;;;;;;;;;;;;;;18.94;64.49;99689.34;7406573;19;1677;-62
2022/12/12 02:16:16;;;;;;;;;;;;;;;19.15;63.97;99693.44;7406380;19;1676;-72
2022/12/12 02:18:51;;;;;;;;;;;;;;;19.38;63.39;99683.78;7405693;19;1381;-62
2022/12/12 02:21:23;;;;;;;;;;;;;;;19.52;63.16;99684.13;7407181;19;1326;-62
2022/12/12 02:24:07;;;;;;;;;;;;;;;19.59;63.21;99677.94;7406227;19;1403;-72
2022/12/12 02:26:50;;;;;;;;;;;;;;;19.04;64.68;99671.31;7407120;19;1529;-72
2022/12/12 02:29:33;;;;;;;;;;;;;;;18.51;66.58;99679.56;7404660;19;1841;-72
2022/12/12 02:32:09;;;;;;;;;;;;;;;18.17;67.36;99686.53;7405626;19;1342;-62
2022/12/12 02:34:43;;;;;;;;;;;;;;;17.97;68.17;99701.09;7405613;19;1517;-73
2022/12/12 02:37:16;;;;;;;;;;;;;;;17.82;68.48;99690.06;7404440;19;1515;-62
2022/12/12 02:39:49;;;;;;;;;;;;;;;17.72;69.04;99690.16;7407055;19;1514;-62
2022/12/12 02:42:23;;;;;;;;;;;;;;;17.65;69.16;99689.94;7403965;19;1475;-73
2022/12/12 02:44:56;;;;;;;;;;;;;;;17.64;69.43;99680.22;7405082;19;1645;-72
2022/12/12 02:47:31;;;;;;;;;;;;;;;17.57;69.61;99676.50;7404988;19;1534;-62
2022/12/12 02:50:02;;;;;;;;;;;;;;;17.53;69.92;99668.91;7401293;19;1850;-71
2022/12/12 02:52:31;;;;;;;;;;;;;;;17.53;69.91;99682.28;7403309;19;1574;-62
2022/12/12 02:55:02;;;;;;;;;;;;;;;17.45;70.05;99675.03;7403532;19;1428;-72
2022/12/12 02:57:32;;;;;;;;;;;;;;;17.45;69.99;99694.59;7403391;19;1506;-63
2022/12/12 12:06:11;;;;;;;;;;;;;;;18.60;68.66;100073.06;7405632;19;1470;-79
2022/12/12 12:08:50;;;;;;;;;;;;;;;18.54;69.11;100054.06;7405556;19;1841;-79
2022/12/12 12:11:23;;;;;;;;;;;;;;;18.58;69.27;100072.38;7406750;19;1377;-78
2022/12/12 12:14:02;;;;;;;;;;;;;;;18.58;69.29;100056.31;7408970;19;1710;-79
2022/12/12 12:16:43;;;;;;;;;;;;;;;18.59;69.50;100065.19;7404823;19;1746;-81
2022/12/12 12:19:15;;;;;;;;;;;;;;;18.56;69.77;100058.31;7407449;19;1752;-80
2022/12/12 12:21:55;;;;;;;;;;;;;;;18.58;69.92;100050.97;7417573;19;1126;-78
2022/12/12 12:24:33;;;;;;;;;;;;;;;18.65;69.73;100043.16;7414610;19;1063;-78
2022/12/12 12:27:08;;;;;;;;;;;;;;;18.70;69.99;100059.59;7412634;19;1034;-79
2022/12/12 12:29:48;;;;;;;;;;;;;;;18.67;69.67;100043.84;7410920;19;1863;-79
2022/12/12 12:32:22;;;;;;;;;;;;;;;18.62;70.25;100035.41;7411256;19;1620;-79
2022/12/12 12:35:00;;;;;;;;;;;;;;;18.63;70.18;100032.59;7412367;19;1498;-78
2022/12/12 12:37:41;;;;;;;;;;;;;;;18.64;70.24;100045.00;7411844;19;1766;-79
2022/12/12 12:40:19;;;;;;;;;;;;;;;18.59;70.71;100047.28;7413474;19;1497;-80
2022/12/12 12:42:59;;;;;;;;;;;;;;;19.30;68.62;100031.38;7410329;19;1612;-79
2022/12/12 12:45:35;;;;;;;;;;;;;;;20.11;65.79;100039.16;7412189;19;1580;-77
2022/12/12 12:48:07;;;;;;;;;;;;;;;20.57;64.82;100023.56;7408371;19;1490;-79
2022/12/12 12:50:38;;;;;;;;;;;;;;;20.89;63.73;100048.00;7406067;19;1857;-78
2022/12/12 12:53:14;;;;;;;;;;;;;;;21.14;63.28;100044.34;7410379;19;1469;-77
2022/12/12 12:55:45;;;;;;;;;;;;;;;21.33;62.57;100028.88;7409944;19;1507;-79
2022/12/12 12:58:19;;;;;;;;;;;;;;;21.11;63.20;100025.88;7413926;19;1720;-78
2022/12/12 13:00:51;;;;;;;;;;;;;;;20.73;64.91;100025.50;7413127;19;1575;-78
2022/12/12 13:03:21;;;;;;;;;;;;;;;20.74;64.86;100031.69;7415729;19;1046;-78
2022/12/12 13:05:53;;;;;;;;;;;;;;;20.49;65.97;100038.81;7413583;19;1254;-79
2022/12/12 13:08:29;;;;;;;;;;;;;;;20.55;65.57;100022.03;7414571;19;1528;-79
2022/12/12 13:11:01;;;;;;;;;;;;;;;20.45;65.99;100024.84;7410828;19;1551;-79
2022/12/12 13:13:30;;;;;;;;;;;;;;;20.27;66.46;100016.91;7408913;19;1413;-78
2022/12/12 13:16:00;;;;;;;;;;;;;;;19.99;68.21;100010.91;7407692;19;1493;-80
2022/12/12 13:18:29;;;;;;;;;;;;;;;19.70;68.67;100020.13;7407438;19;1397;-79
2022/12/12 13:21:01;;;;;;;;;;;;;;;19.38;69.88;100026.94;7410023;19;1346;-78
2022/12/12 13:23:45;;;;;;;;;;;;;;;19.15;70.53;100031.94;7408479;19;1381;-79
2022/12/12 13:26:17;;;;;;;;;;;;;;;18.98;70.89;100036.34;7409487;19;1305;-79
2022/12/12 13:28:49;;;;;;;;;;;;;;;18.94;70.70;100024.25;7409517;19;1857;-78
2022/12/12 13:31:35;;;;;;;;;;;;;;;18.86;70.65;100021.47;7406555;19;1231;-80
2022/12/12 13:34:05;;;;;;;;;;;;;;;18.84;70.73;100023.44;7410863;19;1027;-79
2022/12/12 13:36:34;;;;;;;;;;;;;;;18.56;70.13;99982.47;7408229;19;1586;-77
2022/12/12 13:39:07;;;;;;;;;;;;;;;18.79;70.47;100004.28;7410418;19;1701;-79
2022/12/12 13:41:54;;;;;;;;;;;;;;;18.80;70.27;100030.09;7406694;19;1503;-78
2022/12/12 13:44:34;;;;;;;;;;;;;;;18.73;70.53;100019.13;7408561;19;1439;-78
2022/12/12 13:47:03;;;;;;;;;;;;;;;18.65;70.90;100030.59;7411656;19;1595;-80
2022/12/12 13:49:40;;;;;;;;;;;;;;;18.62;70.92;100030.06;7409009;19;1818;-80
2022/12/12 13:52:23;;;;;;;;;;;;;;;18.62;70.75;100041.63;7412957;19;976;-79
2022/12/12 13:54:54;;;;;;;;;;;;;;;18.65;70.49;100040.47;7416116;19;1288;-80
2022/12/12 13:57:27;;;;;;;;;;;;;;;18.83;69.58;100048.56;7410399;19;1340;-80
2022/12/12 14:00:11;;;;;;;;;;;;;;;19.56;67.17;100044.84;7408005;19;1547;-79
2022/12/12 14:02:41;;;;;;;;;;;;;;;19.68;66.72;100047.09;7406901;19;1449;-79
2022/12/12 14:05:11;;;;;;;;;;;;;;;19.74;67.12;100048.34;7405198;19;1630;-79
2022/12/12 14:07:39;;;;;;;;;;;;;;;19.77;67.26;100053.38;7405390;19;1452;-79
2022/12/12 14:10:25;;;;;;;;;;;;;;;19.83;66.68;100062.66;7408231;19;1852;-78
2022/12/12 14:12:54;;;;;;;;;;;;;;;19.92;66.42;100050.97;7407311;19;1253;-79
2022/12/12 14:15:24;;;;;;;;;;;;;;;20.04;66.26;100040.81;7405870;19;1554;-79
2022/12/12 14:17:54;;;;;;;;;;;;;;;20.30;65.43;100053.34;7408908;19;1011;-80
2022/12/12 14:20:26;;;;;;;;;;;;;;;20.42;65.26;100042.13;7407247;19;1626;-78
2022/12/12 14:23:10;;;;;;;;;;;;;;;20.40;65.25;100049.53;7405699;19;1426;-79
2022/12/12 14:25:41;;;;;;;;;;;;;;;20.18;65.81;100058.16;7406582;19;1622;-78
2022/12/12 14:28:18;;;;;;;;;;;;;;;20.06;65.63;100042.31;7404937;19;1448;-79
2022/12/12 14:30:48;;;;;;;;;;;;;;;20.13;65.47;100042.50;7407139;19;1857;-80
2022/12/12 14:33:28;;;;;;;;;;;;;;;20.19;65.49;100058.00;7409280;19;1038;-79
2022/12/12 14:35:58;;;;;;;;;;;;;;;20.17;65.37;100038.50;7408612;19;1533;-77
2022/12/12 14:38:31;;;;;;;;;;;;;;;20.20;65.54;100050.78;7407697;19;1527;-79
2022/12/12 14:41:04;;;;;;;;;;;;;;;20.24;65.92;100047.59;7405066;19;1492;-80
2022/12/12 14:43:37;;;;;;;;;;;;;;;20.32;65.88;100043.28;7405230;19;1760;-79
2022/12/12 14:46:05;;;;;;;;;;;;;;;20.34;65.94;100050.16;7407322;19;1741;-79
2022/12/12 14:48:34;;;;;;;;;;;;;;;20.47;65.03;100038.97;7406122;19;1071;-78
2022/12/12 14:51:07;;;;;;;;;;;;;;;20.45;65.28;100039.16;7405107;19;1810;-78
2022/12/12 14:53:43;;;;;;;;;;;;;;;20.41;65.66;100035.09;7407310;19;1417;-79
2022/12/12 14:56:17;;;;;;;;;;;;;;;20.58;65.18;100030.59;7407066;19;1338;-78
2022/12/12 14:58:47;;;;;;;;;;;;;;;20.49;65.67;100034.25;7403194;19;1408;-78
2022/12/12 15:01:18;;;;;;;;;;;;;;;20.57;65.74;100034.31;7406836;19;1447;-78
2022/12/12 15:03:48;;;;;;;;;;;;;;;20.65;65.63;100037.06;7405338;19;1004;-78
2022/12/12 15:06:31;;;;;;;;;;;;;;;20.20;67.34;100046.25;7404981;19;1395;-79
2022/12/12 15:09:09;;;;;;;;;;;;;;;19.58;70.15;100048.22;7406487;19;1588;-79
2022/12/12 15:11:40;;;;;;;;;;;;;;;19.26;71.63;100055.00;7404579;19;1497;-79
2022/12/12 15:14:17;;;;;;;;;;;;;;;19.17;72.49;100066.63;7404835;19;1533;-80
2022/12/12 15:16:47;;;;;;;;;;;;;;;19.13;74.05;100057.22;7404289;19;1478;-78
2022/12/12 15:19:18;;;;;;;;;;;;;;;19.06;75.37;100059.69;7405163;19;1448;-79
2022/12/12 15:21:46;;;;;;;;;;;;;;;19.05;76.30;100064.19;7406153;19;1082;-80
2022/12/12 15:24:18;;;;;;;;;;;;;;;19.12;77.77;100069.78;7408458;19;1467;-79
2022/12/12 15:26:50;;;;;;;;;;;;;;;19.14;78.24;100083.00;7405821;19;1492;-79
2022/12/12 15:29:20;;;;;;;;;;;;;;;19.06;78.51;100075.75;7405454;19;1816;-79
2022/12/12 15:31:49;;;;;;;;;;;;;;;19.02;79.15;100080.59;7405203;19;1606;-79
2022/12/12 15:34:44;;;;;;;;;;;;;;;19.07;80.31;100082.78;7405967;19;1519;-80
2022/12/12 15:37:14;;;;;;;;;;;;;;;19.17;79.74;100077.34;7403766;19;1711;-77
2022/12/12 15:39:42;;;;;;;;;;;;;;;19.04;80.47;100094.66;7403158;19;1518;-78
2022/12/12 15:42:15;;;;;;;;;;;;;;;18.97;81.53;100092.75;7405137;19;1393;-78
2022/12/12 15:44:44;;;;;;;;;;;;;;;18.96;82.14;100096.41;7402734;19;1523;-78
2022/12/12 15:47:15;;;;;;;;;;;;;;;18.90;82.52;100097.88;7403796;19;1531;-79
2022/12/12 15:49:44;;;;;;;;;;;;;;;18.85;83.40;100087.59;7403400;19;1860;-77
2022/12/12 15:52:14;;;;;;;;;;;;;;;18.84;83.70;100098.44;7405936;19;1752;-77
2022/12/12 15:54:47;;;;;;;;;;;;;;;18.98;82.36;100115.84;7399784;19;1759;-78
2022/12/12 15:57:22;;;;;;;;;;;;;;;19.02;82.62;100118.09;7399988;19;1647;-80
2022/12/12 15:59:56;;;;;;;;;;;;;;;19.00;82.51;100120.09;7386152;19;1272;-77
2022/12/12 16:02:26;;;;;;;;;;;;;;;18.98;82.70;100110.50;7401118;19;1575;-79
2022/12/12 16:04:55;;;;;;;;;;;;;;;18.94;82.16;100103.75;7402137;19;1594;-79
2022/12/12 16:07:24;;;;;;;;;;;;;;;18.87;82.24;100100.84;7401575;19;1445;-79
2022/12/12 16:09:59;;;;;;;;;;;;;;;18.83;82.27;100112.84;7402727;19;1846;-80
2022/12/12 16:12:43;;;;;;;;;;;;;;;18.80;81.98;100113.13;7404133;19;1392;-79
2022/12/12 16:15:30;;;;;;;;;;;;;;;18.77;82.35;100116.94;7404231;19;1370;-78
2022/12/12 16:17:59;;;;;;;;;;;;;;;18.75;81.78;100112.72;7404475;19;1267;-78
2022/12/12 16:20:29;;;;;;;;;;;;;;;18.68;81.77;100118.69;7402975;19;1196;-79
2022/12/12 16:22:57;;;;;;;;;;;;;;;18.60;82.14;100126.63;7404373;19;1358;-78
2022/12/12 16:25:26;;;;;;;;;;;;;;;18.67;81.34;100130.38;7403032;19;1349;-77
2022/12/12 16:27:57;;;;;;;;;;;;;;;18.74;81.13;100124.44;7403335;19;1439;-78
2022/12/12 16:30:29;;;;;;;;;;;;;;;18.81;80.09;100121.03;7402076;19;1838;-81
2022/12/12 16:32:57;;;;;;;;;;;;;;;18.83;80.28;100137.78;7404649;19;1301;-79
2022/12/12 16:35:26;;;;;;;;;;;;;;;18.76;81.20;100127.78;7400173;19;1599;-78
2022/12/12 16:37:55;;;;;;;;;;;;;;;18.72;81.33;100147.84;7401518;19;1560;-77
2022/12/12 16:40:24;;;;;;;;;;;;;;;18.63;81.15;100153.09;7401826;19;1455;-77
2022/12/12 16:42:55;;;;;;;;;;;;;;;18.54;81.26;100150.47;7399160;19;1397;-79
2022/12/12 16:45:24;;;;;;;;;;;;;;;18.60;80.59;100129.31;7404277;19;1601;-77
2022/12/12 16:47:54;;;;;;;;;;;;;;;18.70;80.53;100158.69;7400969;19;1415;-79
2022/12/12 16:50:23;;;;;;;;;;;;;;;18.66;80.61;100160.84;7399993;19;1846;-78
2022/12/12 16:52:51;;;;;;;;;;;;;;;18.63;80.62;100155.78;7400712;19;1258;-78
2022/12/12 16:55:22;;;;;;;;;;;;;;;18.63;80.56;100147.75;7403344;19;1404;-78
2022/12/12 16:57:50;;;;;;;;;;;;;;;18.64;80.28;100165.50;7402469;19;1444;-77
2022/12/12 17:00:19;;;;;;;;;;;;;;;18.69;79.72;100170.41;7403154;19;1040;-78
2022/12/12 17:02:47;;;;;;;;;;;;;;;18.72;79.69;100196.03;7402769;19;1724;-79
2022/12/12 17:05:21;;;;;;;;;;;;;;;18.71;80.06;100189.84;7398497;19;1551;-78
2022/12/12 17:07:49;;;;;;;;;;;;;;;18.74;80.17;100186.03;7409810;19;1356;-79
2022/12/12 17:10:18;;;;;;;;;;;;;;;18.69;80.19;100203.38;7410215;19;1865;-78
2022/12/12 17:12:47;;;;;;;;;;;;;;;18.71;80.12;100202.41;7408054;19;1381;-79
2022/12/12 17:15:18;;;;;;;;;;;;;;;18.67;79.93;100202.69;7408921;19;1384;-79
2022/12/12 17:17:46;;;;;;;;;;;;;;;18.61;79.91;100205.97;7409724;19;1168;-78
2022/12/12 17:20:18;;;;;;;;;;;;;;;18.56;80.09;100228.81;7406944;19;1550;-78
2022/12/12 17:22:46;;;;;;;;;;;;;;;18.46;80.41;100212.75;7409675;19;1605;-81
2022/12/12 17:25:15;;;;;;;;;;;;;;;18.48;80.38;100210.78;7410594;19;1349;-79
2022/12/12 17:27:44;;;;;;;;;;;;;;;18.59;79.83;100207.94;7407207;19;1693;-81
2022/12/12 17:30:13;;;;;;;;;;;;;;;19.28;77.47;100219.22;7409982;19;1857;-79
2022/12/12 17:32:41;;;;;;;;;;;;;;;19.81;75.50;100221.09;7408008;19;1511;-78
2022/12/12 17:35:10;;;;;;;;;;;;;;;19.89;74.57;100222.19;7406651;19;1712;-78
2022/12/12 17:37:41;;;;;;;;;;;;;;;19.80;74.94;100214.06;7409292;19;1456;-79
2022/12/12 17:40:10;;;;;;;;;;;;;;;19.73;74.43;100221.03;7409856;19;1460;-79
2022/12/12 17:42:39;;;;;;;;;;;;;;;19.85;74.04;100218.94;7408844;19;1279;-78
2022/12/12 17:45:09;;;;;;;;;;;;;;;19.81;74.46;100237.19;7409447;19;1438;-80
2022/12/12 17:47:40;;;;;;;;;;;;;;;19.73;74.79;100229.06;7411700;19;992;-80
2022/12/12 17:50:11;;;;;;;;;;;;;;;19.97;73.61;100215.03;7413970;19;1867;-78
2022/12/12 17:52:42;;;;;;;;;;;;;;;19.90;73.67;100216.66;7411916;19;1606;-78
2022/12/12 17:55:10;;;;;;;;;;;;;;;20.08;72.94;100207.75;7408669;19;1459;-78
2022/12/12 17:57:39;;;;;;;;;;;;;;;20.04;73.14;100209.91;7409836;19;1532;-80
2022/12/12 18:00:08;;;;;;;;;;;;;;;19.98;73.14;100221.25;7415738;19;1414;-80
2022/12/12 18:02:40;;;;;;;;;;;;;;;19.98;72.93;100213.22;7408112;19;1561;-80
2022/12/12 18:05:09;;;;;;;;;;;;;;;19.97;73.19;100209.66;7409338;19;1234;-79
2022/12/12 18:07:37;;;;;;;;;;;;;;;19.99;72.88;100212.19;7410937;19;1199;-79
2022/12/12 18:10:09;;;;;;;;;;;;;;;20.01;72.88;100228.97;7410085;19;1345;-78
2022/12/12 18:12:37;;;;;;;;;;;;;;;20.00;72.77;100216.56;7409860;19;1441;-78
2022/12/12 18:15:06;;;;;;;;;;;;;;;20.00;72.63;100240.72;7410351;19;1559;-78
2022/12/12 18:17:36;;;;;;;;;;;;;;;19.98;72.82;100232.00;7409404;19;1135;-80
2022/12/12 18:20:04;;;;;;;;;;;;;;;20.07;72.32;100236.41;7408012;19;1250;-80
2022/12/12 18:22:33;;;;;;;;;;;;;;;20.12;72.28;100250.22;7408125;19;1332;-80
2022/12/12 18:25:01;;;;;;;;;;;;;;;20.09;72.03;100242.47;7405032;19;1373;-80
2022/12/12 18:27:32;;;;;;;;;;;;;;;20.11;72.11;100259.25;7409634;19;1199;-78
2022/12/12 18:30:00;;;;;;;;;;;;;;;20.08;72.37;100253.38;7409026;19;1281;-79
2022/12/12 18:32:29;;;;;;;;;;;;;;;20.12;71.90;100244.00;7405813;19;1874;-78
2022/12/12 18:34:58;;;;;;;;;;;;;;;20.10;72.01;100259.44;7335929;19;12586;-80
2022/12/12 18:37:27;;;;;;;;;;;;;;;20.12;71.94;100249.38;7404957;19;1486;-80
2022/12/12 18:39:55;;;;;;;;;;;;;;;20.30;71.85;100252.03;7408310;19;1498;-80
2022/12/12 18:42:25;;;;;;;;;;;;;;;20.33;71.73;100254.41;7409379;19;1198;-80
2022/12/12 18:44:56;;;;;;;;;;;;;;;20.22;72.17;100248.28;7407219;19;1361;-78
2022/12/12 18:47:25;;;;;;;;;;;;;;;20.15;72.08;100260.63;7410074;19;1084;-80
2022/12/12 18:49:53;;;;;;;;;;;;;;;20.13;72.41;100257.25;7410496;19;1370;-79
2022/12/12 18:52:21;;;;;;;;;;;;;;;20.21;72.15;100253.81;7408138;19;1864;-78
2022/12/12 18:54:51;;;;;;;;;;;;;;;20.29;71.52;100250.34;7413487;19;1507;-79
2022/12/12 18:57:19;;;;;;;;;;;;;;;20.22;71.39;100263.56;7404871;19;1755;-79
2022/12/12 18:59:48;;;;;;;;;;;;;;;20.40;70.87;100274.25;7407322;19;1348;-79
2022/12/12 19:02:19;;;;;;;;;;;;;;;20.45;70.99;100277.31;7405292;19;1458;-79
2022/12/12 19:04:49;;;;;;;;;;;;;;;20.15;71.37;100281.28;7402943;19;1523;-79
2022/12/12 19:07:17;;;;;;;;;;;;;;;19.63;72.33;100273.88;7405478;19;1691;-80
2022/12/12 19:09:46;;;;;;;;;;;;;;;19.32;73.21;100281.41;7404315;19;1377;-79
2022/12/12 19:12:15;;;;;;;;;;;;;;;19.16;74.38;100276.69;7405278;19;1826;-79
2022/12/12 19:14:43;;;;;;;;;;;;;;;18.95;75.08;100285.81;7406859;19;1137;-79
2022/12/12 19:17:11;;;;;;;;;;;;;;;18.86;75.11;100275.94;7405932;19;1493;-78
2022/12/12 19:19:42;;;;;;;;;;;;;;;18.83;75.35;100286.97;7406783;19;1343;-79
2022/12/12 19:22:10;;;;;;;;;;;;;;;18.76;75.71;100296.53;7404768;19;1335;-78
2022/12/12 19:24:40;;;;;;;;;;;;;;;18.69;75.59;100277.53;7406047;19;1381;-78
2022/12/12 19:27:08;;;;;;;;;;;;;;;18.64;75.99;100296.72;7404945;19;1169;-78
2022/12/12 19:29:36;;;;;;;;;;;;;;;18.60;76.00;100289.97;7404735;19;1133;-78
2022/12/12 19:32:05;;;;;;;;;;;;;;;18.57;76.27;100298.28;7403606;19;1813;-79
2022/12/12 19:34:33;;;;;;;;;;;;;;;18.58;76.47;100313.38;7406697;19;1358;-79
2022/12/12 19:37:04;;;;;;;;;;;;;;;18.57;76.28;100316.19;7409225;19;1291;-79
2022/12/12 19:39:34;;;;;;;;;;;;;;;18.58;76.07;100320.53;7408271;19;1397;-81
2022/12/12 19:42:02;;;;;;;;;;;;;;;18.60;76.21;100310.53;7405150;19;1571;-79
2022/12/12 19:44:32;;;;;;;;;;;;;;;18.53;75.98;100315.63;7410150;19;1321;-79
2022/12/12 19:47:00;;;;;;;;;;;;;;;18.52;76.32;100310.41;7408243;19;1665;-79
2022/12/12 19:49:28;;;;;;;;;;;;;;;18.83;75.25;100319.13;7410339;19;1352;-80
2022/12/12 19:51:57;;;;;;;;;;;;;;;19.46;73.46;100323.81;7405588;19;1823;-79
2022/12/12 19:54:44;;;;;;;;;;;;;;;19.66;72.47;100313.81;7405124;19;1535;-80
2022/12/12 19:57:16;;;;;;;;;;;;;;;19.86;71.79;100326.13;7405405;19;1379;-80
2022/12/12 19:59:45;;;;;;;;;;;;;;;19.94;71.75;100338.78;7406519;19;1438;-81
2022/12/12 20:02:13;;;;;;;;;;;;;;;20.12;70.84;100328.06;7407748;19;1517;-81
2022/12/12 20:04:41;;;;;;;;;;;;;;;20.07;71.33;100335.72;7406555;19;1103;-79
2022/12/12 20:07:10;;;;;;;;;;;;;;;20.08;70.96;100332.06;7407000;19;1359;-80
2022/12/12 20:09:41;;;;;;;;;;;;;;;20.24;70.84;100334.88;7407233;19;1256;-80
2022/12/12 20:12:10;;;;;;;;;;;;;;;20.16;70.80;100352.78;7405284;19;1848;-81
2022/12/12 20:14:42;;;;;;;;;;;;;;;20.01;71.35;100352.44;7408783;19;1069;-80
2022/12/12 20:17:10;;;;;;;;;;;;;;;19.63;72.65;100355.19;7404430;19;1516;-80
2022/12/12 20:19:38;;;;;;;;;;;;;;;19.36;73.33;100350.69;7405636;19;1409;-80
2022/12/12 20:22:08;;;;;;;;;;;;;;;19.16;74.14;100359.75;7406557;19;1259;-80
2022/12/12 20:24:39;;;;;;;;;;;;;;;18.98;74.02;100360.56;7407352;19;1372;-79
2022/12/12 20:27:11;;;;;;;;;;;;;;;19.00;73.82;100379.13;7407585;19;1195;-79
2022/12/12 20:29:43;;;;;;;;;;;;;;;18.97;73.36;100372.25;7404036;19;1356;-79
2022/12/12 20:32:12;;;;;;;;;;;;;;;19.03;73.46;100386.91;7404936;19;1861;-80
2022/12/12 20:34:41;;;;;;;;;;;;;;;18.97;73.61;100366.88;7405851;19;1478;-80
2022/12/12 20:37:11;;;;;;;;;;;;;;;19.00;72.82;100376.47;7404080;19;1345;-81
2022/12/12 20:39:40;;;;;;;;;;;;;;;19.08;73.22;100385.47;7406564;19;1385;-79
2022/12/12 20:42:09;;;;;;;;;;;;;;;19.01;73.86;100359.41;7412466;19;1086;-80
2022/12/12 20:44:38;;;;;;;;;;;;;;;19.03;73.70;100381.53;7414876;19;1473;-80
2022/12/12 20:47:16;;;;;;;;;;;;;;;19.05;74.35;100382.25;7413695;19;1419;-80
2022/12/12 20:49:44;;;;;;;;;;;;;;;19.05;74.26;100391.13;7411077;19;1591;-82
2022/12/12 20:52:12;;;;;;;;;;;;;;;18.99;74.41;100377.47;7414450;19;1822;-79
2022/12/12 20:54:41;;;;;;;;;;;;;;;18.99;74.16;100372.09;7415849;19;1415;-78
2022/12/12 20:57:10;;;;;;;;;;;;;;;18.94;74.13;100388.63;7412933;19;1419;-79
2022/12/12 20:59:44;;;;;;;;;;;;;;;18.85;74.06;100387.63;7409772;19;1391;-79
2022/12/12 21:02:15;;;;;;;;;;;;;;;18.82;73.91;100374.53;7409833;19;1403;-81
2022/12/12 21:04:43;;;;;;;;;;;;;;;18.78;73.75;100388.31;7404570;19;1472;-80
2022/12/12 21:07:12;;;;;;;;;;;;;;;18.76;73.48;100387.63;7401309;19;1393;-81
2022/12/12 21:09:40;;;;;;;;;;;;;;;18.72;73.62;100384.41;7402369;19;1682;-79
2022/12/12 21:12:10;;;;;;;;;;;;;;;18.76;73.38;100409.03;7404096;19;1848;-79
2022/12/12 21:14:38;;;;;;;;;;;;;;;18.68;73.22;100397.22;7404621;19;1287;-80
2022/12/12 21:17:07;;;;;;;;;;;;;;;18.71;72.73;100392.56;7406129;19;1665;-81
2022/12/12 21:19:37;;;;;;;;;;;;;;;18.66;72.71;100385.81;7405176;19;1132;-80
2022/12/12 21:22:07;;;;;;;;;;;;;;;18.61;72.77;100387.22;7406034;19;1554;-80
2022/12/12 21:24:35;;;;;;;;;;;;;;;18.56;72.76;100390.34;7405555;19;1728;-80
2022/12/12 21:27:04;;;;;;;;;;;;;;;18.57;72.21;100405.41;7405996;19;1562;-82
2022/12/12 21:29:33;;;;;;;;;;;;;;;18.55;71.90;100399.34;7404329;19;1463;-80
2022/12/12 21:32:01;;;;;;;;;;;;;;;18.56;71.47;100408.22;7397246;19;1869;-80
2022/12/12 21:34:29;;;;;;;;;;;;;;;18.49;71.39;100405.25;7404979;19;1462;-80
2022/12/12 21:37:00;;;;;;;;;;;;;;;18.47;71.25;100409.91;7404156;19;1273;-79
2022/12/12 21:39:29;;;;;;;;;;;;;;;18.44;71.19;100402.16;7402067;19;1609;-79
2022/12/12 21:41:58;;;;;;;;;;;;;;;18.42;70.87;100405.00;7402650;19;1304;-80
2022/12/12 21:44:26;;;;;;;;;;;;;;;18.35;70.35;100403.84;7407417;19;1313;-80
2022/12/12 21:46:54;;;;;;;;;;;;;;;18.25;70.53;100387.78;7407271;19;1554;-81
2022/12/12 21:49:32;;;;;;;;;;;;;;;18.25;70.16;100393.13;7410333;19;1438;-78
2022/12/12 21:52:04;;;;;;;;;;;;;;;18.23;70.14;100383.56;7409151;19;1838;-80
2022/12/12 21:54:33;;;;;;;;;;;;;;;18.19;70.17;100391.03;7407365;19;1475;-79
2022/12/12 21:57:02;;;;;;;;;;;;;;;18.15;69.87;100381.59;7407833;19;1503;-79
2022/12/12 21:59:31;;;;;;;;;;;;;;;18.14;69.88;100395.09;7409457;19;1349;-79
2022/12/12 22:02:00;;;;;;;;;;;;;;;18.11;69.70;100380.16;7406203;19;1453;-80
2022/12/12 22:04:28;;;;;;;;;;;;;;;18.07;69.70;100365.38;7406095;19;1494;-79
2022/12/12 22:06:58;;;;;;;;;;;;;;;18.09;69.47;100382.13;7406163;19;1296;-80
2022/12/12 22:09:29;;;;;;;;;;;;;;;18.06;69.05;100395.78;7408309;19;1313;-80
2022/12/12 22:11:57;;;;;;;;;;;;;;;18.05;68.85;100386.91;7408279;19;1846;-80
2022/12/12 22:14:25;;;;;;;;;;;;;;;18.11;68.99;100396.22;7408081;19;1637;-80
2022/12/12 22:16:54;;;;;;;;;;;;;;;18.06;68.61;100396.66;7407955;19;1599;-80